Time;durP1;ratioP1;P1;durP2;ratioP2;P2;SDS_P1;SDS_P2;PMS_P1;PMS_P2;Temp;Humidity;BMP_temperature;BMP_pressure;BME280_temperature;BME280_humidity;BME280_pressure;Samples;Min_cycle;Max_cycle;Signal;HPM_P1;HPM_P2
2024/01/16 00:01:57;;;;;;;14.02;8.70;;;-0.40;99.90;;;-1.39;100.00;100897.25;4134892;28;20512;-68
2024/01/16 00:03:57;;;;;;;15.02;10.48;;;-0.40;99.90;;;-1.38;100.00;100895.50;4135215;28;20031;-68
2024/01/16 00:05:58;;;;;;;23.00;10.25;;;-0.40;99.90;;;-1.39;100.00;100893.81;4135988;28;20061;-68
2024/01/16 00:07:59;;;;;;;13.80;8.60;;;-0.40;99.90;;;-1.39;100.00;100898.97;4136066;28;20042;-68
2024/01/16 00:10:00;;;;;;;14.52;9.43;;;-0.50;99.90;;;-1.41;100.00;100904.25;4136282;28;20405;-68
2024/01/16 00:12:03;;;;;;;17.73;9.48;;;-0.40;99.90;;;-1.42;100.00;100894.81;4134894;28;20058;-68
2024/01/16 00:14:04;;;;;;;18.42;9.30;;;-0.50;99.90;;;-1.43;100.00;100894.88;4135129;28;20022;-68
2024/01/16 00:16:05;;;;;;;14.43;9.25;;;-0.50;99.90;;;-1.47;100.00;100890.78;4136116;28;20379;-68
2024/01/16 00:18:08;;;;;;;18.23;8.88;;;-0.50;99.90;;;-1.52;100.00;100885.81;4135133;28;20022;-68
2024/01/16 00:20:09;;;;;;;13.80;8.80;;;-0.50;99.90;;;-1.55;100.00;100883.38;4135118;28;20058;-68
2024/01/16 00:22:10;;;;;;;17.27;9.30;;;-0.60;99.90;;;-1.61;100.00;100873.34;4136297;28;20023;-68
2024/01/16 00:24:11;;;;;;;13.70;8.45;;;-0.70;99.90;;;-1.67;100.00;100871.06;4135161;28;20026;-68
2024/01/16 00:26:22;;;;;;;15.45;7.95;;;-0.70;99.90;;;-1.72;100.00;100860.13;4135868;28;20026;-69
2024/01/16 00:28:23;;;;;;;12.23;7.80;;;-0.70;99.90;;;-1.77;100.00;100856.91;4151356;28;20030;-69
2024/01/16 00:30:24;;;;;;;13.15;8.00;;;-0.70;99.90;;;-1.79;100.00;100849.22;4135851;28;20022;-69
2024/01/16 00:32:24;;;;;;;14.05;9.25;;;-0.80;99.90;;;-1.80;100.00;100851.91;4136288;28;20486;-68
2024/01/16 00:34:25;;;;;;;13.73;7.95;;;-0.80;99.90;;;-1.80;100.00;100851.91;4135109;28;20018;-68
2024/01/16 00:36:26;;;;;;;14.50;8.38;;;-0.80;99.90;;;-1.80;100.00;100839.81;4136197;28;20421;-69
2024/01/16 00:38:27;;;;;;;12.77;8.05;;;-0.80;99.90;;;-1.81;100.00;100839.88;4134977;28;20034;-68
2024/01/16 00:40:28;;;;;;;10.02;7.05;;;-0.80;99.90;;;-1.81;100.00;100840.72;4133438;28;20085;-68
2024/01/16 00:42:29;;;;;;;13.27;7.70;;;-0.80;99.90;;;-1.85;100.00;100828.03;4134827;28;20042;-68
2024/01/16 00:44:30;;;;;;;10.90;7.72;;;-0.90;99.90;;;-1.86;100.00;100828.94;4136203;28;20019;-69
2024/01/16 00:46:30;;;;;;;11.85;7.68;;;-0.90;99.90;;;-1.87;100.00;100822.91;4136006;28;20108;-68
2024/01/16 00:48:31;;;;;;;15.18;8.57;;;-0.90;99.90;;;-1.87;100.00;100824.66;4135955;28;20073;-68
2024/01/16 00:50:32;;;;;;;12.52;7.55;;;-0.90;99.90;;;-1.88;100.00;100816.06;4134770;28;20497;-68
2024/01/16 00:52:33;;;;;;;12.25;8.93;;;-0.90;99.90;;;-1.92;100.00;100805.97;4134865;28;20038;-68
2024/01/16 00:54:34;;;;;;;12.13;8.23;;;-0.90;99.90;;;-1.92;100.00;100796.47;4131846;28;20445;-68
2024/01/16 00:56:38;;;;;;;14.57;7.43;;;-0.90;99.90;;;-1.90;100.00;100791.22;4134641;28;20034;-68
2024/01/16 00:58:39;;;;;;;13.20;7.13;;;-0.90;99.90;;;-1.89;100.00;100791.16;4136193;28;20486;-68
2024/01/16 01:00:40;;;;;;;13.60;7.45;;;-0.90;99.90;;;-1.87;100.00;100809.16;4135769;28;20270;-68
2024/01/16 01:02:41;;;;;;;13.55;7.47;;;-0.90;99.90;;;-1.89;100.00;100813.56;4134706;28;20057;-68
2024/01/16 01:04:43;;;;;;;13.02;8.15;;;-0.90;99.90;;;-1.89;100.00;100813.56;4135822;28;20030;-68
2024/01/16 01:06:43;;;;;;;15.25;7.72;;;-0.90;99.90;;;-1.90;100.00;100817.91;4135947;28;20820;-68
2024/01/16 01:08:44;;;;;;;11.73;7.72;;;-0.90;99.90;;;-1.90;100.00;100812.72;4135865;28;20030;-68
2024/01/16 01:10:45;;;;;;;13.60;7.63;;;-0.90;99.90;;;-1.85;100.00;100815.91;4134759;28;20034;-68
2024/01/16 01:12:46;;;;;;;16.50;7.32;;;-0.90;99.90;;;-1.86;100.00;100810.84;4135701;28;20061;-68
2024/01/16 01:14:47;;;;;;;9.93;6.72;;;-0.90;99.90;;;-1.84;100.00;100804.69;4134589;28;20034;-68
2024/01/16 01:16:48;;;;;;;11.63;7.43;;;-0.90;99.90;;;-1.81;100.00;100788.16;4135856;28;20029;-68
2024/01/16 01:18:48;;;;;;;11.90;7.68;;;-0.80;99.90;;;-1.75;100.00;100780.94;4134720;28;20045;-68
2024/01/16 01:20:49;;;;;;;12.38;6.60;;;-0.80;99.90;;;-1.72;100.00;100792.88;4135810;28;20080;-68
2024/01/16 01:22:50;;;;;;;12.20;7.28;;;-0.80;99.90;;;-1.76;100.00;100793.94;4135804;28;20041;-68
2024/01/16 01:24:51;;;;;;;10.60;5.85;;;-0.70;99.90;;;-1.72;100.00;100798.06;4135500;28;20097;-68
2024/01/16 01:26:52;;;;;;;10.23;5.68;;;-0.70;99.90;;;-1.71;100.00;100790.22;4135718;28;20033;-68
2024/01/16 01:28:53;;;;;;;9.80;5.53;;;-0.70;99.90;;;-1.67;100.00;100806.41;4134432;28;20054;-68
2024/01/16 01:30:54;;;;;;;9.10;5.80;;;-0.70;99.90;;;-1.61;100.00;100815.63;4135736;28;20022;-68
2024/01/16 01:32:54;;;;;;;12.35;6.57;;;-0.60;99.90;;;-1.56;100.00;100819.66;4135807;28;20034;-68
2024/01/16 01:34:55;;;;;;;10.20;6.30;;;-0.60;99.90;;;-1.54;100.00;100820.41;4135726;28;20057;-68
2024/01/16 01:36:57;;;;;;;9.35;5.97;;;-0.60;99.90;;;-1.53;100.00;100832.44;4134611;28;20026;-68
2024/01/16 01:38:58;;;;;;;9.18;5.60;;;-0.60;99.90;;;-1.53;100.00;100831.59;4150931;28;20034;-68
2024/01/16 01:40:59;;;;;;;10.82;6.43;;;-0.60;99.90;;;-1.58;100.00;100826.63;4135862;28;20081;-68
2024/01/16 01:43:21;;;;;;;10.27;6.28;;;-0.60;99.90;;;-1.58;100.00;100820.66;4135521;28;20579;-68
2024/01/16 01:45:22;;;;;;;10.25;5.40;;;-0.60;99.90;;;-1.59;100.00;100830.16;4135297;28;20025;-68
2024/01/16 01:47:23;;;;;;;8.38;5.38;;;-0.60;99.90;;;-1.58;100.00;100826.63;4135729;28;20030;-68
2024/01/16 01:49:26;;;;;;;11.95;5.70;;;-0.60;99.90;;;-1.63;100.00;100823.44;4134588;28;20022;-68
2024/01/16 01:51:27;;;;;;;9.93;5.72;;;-0.60;99.90;;;-1.60;100.00;100818.13;4134495;28;20105;-68
2024/01/16 01:53:30;;;;;;;9.10;5.55;;;-0.60;99.90;;;-1.61;100.00;100824.19;4136941;28;20030;-68
2024/01/16 01:55:31;;;;;;;10.55;5.25;;;-0.60;99.90;;;-1.65;100.00;100835.63;4138661;28;20100;-68
2024/01/16 01:57:34;;;;;;;10.20;5.85;;;-0.60;99.90;;;-1.70;100.00;100830.69;4138524;28;20489;-68
2024/01/16 01:59:35;;;;;;;11.18;5.80;;;-0.70;99.90;;;-1.73;100.00;100827.41;4137018;28;20030;-68
2024/01/16 02:01:36;;;;;;;9.38;5.53;;;-0.70;99.90;;;-1.74;100.00;100818.00;4137266;28;20030;-68
2024/01/16 02:03:46;;;;;;;10.30;4.97;;;-0.80;99.90;;;-1.79;100.00;100813.03;4137391;28;20081;-68
2024/01/16 02:05:47;;;;;;;6.75;4.45;;;-0.80;99.90;;;-1.75;100.00;100811.13;4138563;28;20031;-68
2024/01/16 02:07:48;;;;;;;11.43;4.60;;;-0.80;99.90;;;-1.71;100.00;100812.66;4137145;28;20539;-69
2024/01/16 02:09:50;;;;;;;7.60;4.40;;;-0.80;99.90;;;-1.67;100.00;100812.41;4120868;28;20090;-68
2024/01/16 02:11:50;;;;;;;7.65;4.95;;;-0.70;99.90;;;-1.63;100.00;100815.69;4138467;28;20046;-69
2024/01/16 02:13:51;;;;;;;9.13;4.78;;;-0.70;99.90;;;-1.63;100.00;100805.34;4138353;28;20482;-68
2024/01/16 02:15:52;;;;;;;8.50;4.65;;;-0.70;99.90;;;-1.62;100.00;100806.19;4136831;28;20508;-68
2024/01/16 02:17:53;;;;;;;8.07;5.28;;;-0.70;99.90;;;-1.70;100.00;100807.41;4138378;28;20026;-68
2024/01/16 02:19:54;;;;;;;8.07;4.93;;;-0.80;99.90;;;-1.71;100.00;100804.91;4138417;28;20030;-69
2024/01/16 02:22:00;;;;;;;7.65;4.43;;;-0.80;99.90;;;-1.78;100.00;100800.94;4138153;28;20034;-68
2024/01/16 02:24:01;;;;;;;8.00;4.13;;;-0.80;99.90;;;-1.76;100.00;100806.88;4138139;28;20038;-69
2024/01/16 02:26:04;;;;;;;8.25;4.82;;;-0.80;99.90;;;-1.78;100.00;100819.03;4136847;28;20027;-68
2024/01/16 02:28:05;;;;;;;5.63;3.72;;;-0.80;99.90;;;-1.81;100.00;100827.78;4137034;28;20026;-69
2024/01/16 02:30:06;;;;;;;9.13;4.25;;;-0.80;99.90;;;-1.85;100.00;100820.28;4137694;28;20022;-68
2024/01/16 02:32:08;;;;;;;7.63;4.30;;;-0.80;99.90;;;-1.81;100.00;100817.44;4138150;28;20097;-69
2024/01/16 02:34:08;;;;;;;7.10;4.57;;;-0.80;99.90;;;-1.81;100.00;100814.03;4138032;28;20034;-68
2024/01/16 02:36:09;;;;;;;8.43;4.38;;;-0.80;99.90;;;-1.80;100.00;100810.53;4136731;28;20040;-68
2024/01/16 02:38:10;;;;;;;7.65;4.97;;;-0.80;99.90;;;-1.80;100.00;100811.38;4136683;28;20465;-68
2024/01/16 02:40:11;;;;;;;8.68;5.05;;;-0.80;99.90;;;-1.77;100.00;100816.41;4137878;28;20037;-68
2024/01/16 02:42:12;;;;;;;7.68;4.43;;;-0.80;99.90;;;-1.73;100.00;100811.88;4120636;28;20113;-68
2024/01/16 02:44:13;;;;;;;9.07;4.43;;;-0.80;99.90;;;-1.74;100.00;100805.06;4137375;28;20030;-68
2024/01/16 02:46:15;;;;;;;9.05;4.70;;;-0.70;99.90;;;-1.68;100.00;100804.75;4137831;28;20026;-68
2024/01/16 02:48:15;;;;;;;6.60;3.78;;;-0.70;99.90;;;-1.66;100.00;100810.69;4137792;28;20022;-68
2024/01/16 02:50:16;;;;;;;6.45;4.40;;;-0.70;99.90;;;-1.64;100.00;100815.78;4137751;28;20070;-68
2024/01/16 02:52:18;;;;;;;7.53;4.15;;;-0.70;99.90;;;-1.67;100.00;100801.22;4137743;28;20031;-68
2024/01/16 02:54:20;;;;;;;6.63;3.85;;;-0.70;99.90;;;-1.69;100.00;100810.81;4138153;28;20054;-68
2024/01/16 02:56:21;;;;;;;7.20;4.13;;;-0.70;99.90;;;-1.69;100.00;100813.41;4136400;28;20520;-68
2024/01/16 02:58:21;;;;;;;8.32;4.45;;;-0.70;99.90;;;-1.72;100.00;100805.81;4137699;28;20034;-69
2024/01/16 03:00:22;;;;;;;7.43;4.40;;;-0.70;99.90;;;-1.69;100.00;100792.72;4137265;28;20509;-68
2024/01/16 03:02:23;;;;;;;7.13;4.05;;;-0.70;99.90;;;-1.67;100.00;100783.97;4120142;28;20498;-68
2024/01/16 03:04:24;;;;;;;7.20;4.30;;;-0.70;99.90;;;-1.65;100.00;100772.72;4136064;28;20034;-68
2024/01/16 03:06:25;;;;;;;5.13;3.88;;;-0.70;99.90;;;-1.67;100.00;100776.22;4136232;28;20026;-68
2024/01/16 03:08:26;;;;;;;7.63;4.97;;;-0.70;99.90;;;-1.66;100.00;100784.81;4120083;28;20035;-68
2024/01/16 03:10:27;;;;;;;7.18;4.22;;;-0.70;99.90;;;-1.67;100.00;100783.13;4137390;28;20073;-68
2024/01/16 03:12:28;;;;;;;8.52;4.60;;;-0.70;99.90;;;-1.68;100.00;100773.72;4137323;28;20058;-69
2024/01/16 03:14:33;;;;;;;6.75;4.53;;;-0.70;99.90;;;-1.72;100.00;100775.63;4137168;28;20478;-68
2024/01/16 03:16:35;;;;;;;5.00;4.13;;;-0.70;99.90;;;-1.67;100.00;100785.72;4137449;28;20066;-68
2024/01/16 03:18:36;;;;;;;8.43;4.47;;;-0.70;99.90;;;-1.64;100.00;100782.16;4136162;28;20521;-69
2024/01/16 03:20:37;;;;;;;9.30;3.95;;;-0.70;99.90;;;-1.61;100.00;100779.44;4119867;28;20039;-69
2024/01/16 03:22:39;;;;;;;7.03;4.30;;;-0.70;99.90;;;-1.58;100.00;100785.25;4135854;28;20070;-68
2024/01/16 03:24:40;;;;;;;6.88;4.20;;;-0.60;99.90;;;-1.57;100.00;100780.91;4137101;28;20092;-69
2024/01/16 03:26:42;;;;;;;7.93;4.20;;;-0.60;99.90;;;-1.52;100.00;100781.53;4136111;28;20105;-69
2024/01/16 03:28:43;;;;;;;7.40;4.00;;;-0.60;99.90;;;-1.53;100.00;100764.34;4137105;28;20393;-69
2024/01/16 03:30:44;;;;;;;8.18;4.10;;;-0.60;99.90;;;-1.51;100.00;100772.84;4135439;28;20093;-69
2024/01/16 03:32:45;;;;;;;7.65;4.10;;;-0.60;99.90;;;-1.53;100.00;100777.28;4135939;28;20101;-69
2024/01/16 03:34:46;;;;;;;8.43;4.82;;;-0.60;99.90;;;-1.55;100.00;100774.75;4137049;28;20409;-68
2024/01/16 03:36:47;;;;;;;7.60;4.20;;;-0.60;99.90;;;-1.53;100.00;100766.94;4137243;28;20030;-69
2024/01/16 03:38:48;;;;;;;8.55;4.75;;;-0.60;99.90;;;-1.53;100.00;100759.16;4135729;28;20068;-69
2024/01/16 03:40:48;;;;;;;10.93;4.55;;;-0.60;99.90;;;-1.55;100.00;100759.22;4136985;28;20085;-69
2024/01/16 03:42:49;;;;;;;10.70;4.78;;;-0.60;99.90;;;-1.48;100.00;100764.94;4136979;28;20088;-69
2024/01/16 03:44:51;;;;;;;7.75;3.90;;;-0.50;99.90;;;-1.48;100.00;100755.44;4135357;28;20026;-68
2024/01/16 03:46:52;;;;;;;8.93;3.85;;;-0.50;99.90;;;-1.45;100.00;100760.44;4135607;28;20073;-69
2024/01/16 03:48:52;;;;;;;5.50;4.00;;;-0.50;99.90;;;-1.45;100.00;100755.28;4135870;28;20023;-69
2024/01/16 03:50:56;;;;;;;6.10;3.50;;;-0.50;99.90;;;-1.45;100.00;100757.00;4136865;28;20502;-69
2024/01/16 03:52:57;;;;;;;6.07;4.05;;;-0.50;99.90;;;-1.46;100.00;100760.50;4136871;28;20394;-69
2024/01/16 03:54:58;;;;;;;9.13;4.13;;;-0.50;99.90;;;-1.48;100.00;100762.34;4136639;28;20030;-69
2024/01/16 03:56:59;;;;;;;7.15;4.63;;;-0.50;99.90;;;-1.52;100.00;100768.63;4136741;28;20088;-69
2024/01/16 03:58:59;;;;;;;5.78;3.53;;;-0.50;99.90;;;-1.59;100.00;100762.91;4136647;28;20030;-68
2024/01/16 04:01:00;;;;;;;7.10;3.95;;;-0.60;99.90;;;-1.66;100.00;100764.13;4136711;28;20037;-68
2024/01/16 04:03:01;;;;;;;8.75;4.57;;;-0.70;99.90;;;-1.73;100.00;100770.50;4136494;28;20034;-69
2024/01/16 04:05:03;;;;;;;8.10;4.80;;;-0.70;99.90;;;-1.80;100.00;100776.94;4135743;28;20034;-68
2024/01/16 04:07:04;;;;;;;7.80;4.40;;;-0.80;99.90;;;-1.84;100.00;100777.97;4136710;28;20077;-69
2024/01/16 04:09:05;;;;;;;8.60;4.10;;;-0.80;99.90;;;-1.87;100.00;100778.13;4136622;28;20093;-69
2024/01/16 04:11:13;;;;;;;9.43;4.15;;;-0.90;99.90;;;-1.89;100.00;100765.31;4136442;28;20079;-68
2024/01/16 04:13:14;;;;;;;7.72;5.30;;;-0.90;99.90;;;-1.90;100.00;100768.78;4135356;28;20054;-69
2024/01/16 04:15:15;;;;;;;6.82;3.80;;;-0.90;99.90;;;-1.89;100.00;100764.47;4136137;28;20041;-69
2024/01/16 04:17:15;;;;;;;5.57;3.60;;;-0.90;99.90;;;-1.83;100.00;100765.00;4136365;28;20576;-68
2024/01/16 04:19:16;;;;;;;6.00;3.78;;;-0.80;99.90;;;-1.75;100.00;100762.00;4135126;28;20026;-68
2024/01/16 04:21:17;;;;;;;5.82;3.80;;;-0.70;99.90;;;-1.63;100.00;100757.97;4136454;28;20486;-69
2024/01/16 04:23:18;;;;;;;7.35;4.13;;;-0.70;99.90;;;-1.57;100.00;100747.28;4136348;28;20481;-68
2024/01/16 04:25:19;;;;;;;7.25;4.40;;;-0.60;99.90;;;-1.51;100.00;100747.81;4136336;28;20030;-68
2024/01/16 04:27:20;;;;;;;6.50;4.30;;;-0.50;99.90;;;-1.46;100.00;100742.41;4134882;28;20029;-69
2024/01/16 04:29:20;;;;;;;5.80;3.88;;;-0.50;99.90;;;-1.38;100.00;100742.84;4134596;28;20567;-68
2024/01/16 04:31:22;;;;;;;6.22;4.82;;;-0.40;99.90;;;-1.29;100.00;100750.97;4134948;28;20058;-68
2024/01/16 04:33:23;;;;;;;6.53;4.20;;;-0.30;99.90;;;-1.23;100.00;100747.22;4136306;28;20034;-69
2024/01/16 04:35:24;;;;;;;8.82;4.57;;;-0.30;99.90;;;-1.15;100.00;100753.66;4135123;28;20081;-68
2024/01/16 04:37:24;;;;;;;8.02;4.88;;;-0.20;99.90;;;-1.12;100.00;100743.13;4136315;28;20030;-68
2024/01/16 04:39:25;;;;;;;6.47;4.50;;;-0.20;99.90;;;-1.09;100.00;100729.19;4136295;28;20022;-68
2024/01/16 04:41:26;;;;;;;8.73;4.22;;;-0.10;99.90;;;-1.10;100.00;100735.28;4136182;28;20040;-68
2024/01/16 04:43:27;;;;;;;7.18;4.65;;;-0.10;99.90;;;-1.12;100.00;100725.03;4136087;28;20027;-69
2024/01/16 04:45:28;;;;;;;7.70;4.80;;;-0.10;99.90;;;-1.27;100.00;100718.09;4136000;28;20026;-68
2024/01/16 04:47:29;;;;;;;11.15;5.55;;;-0.10;99.90;;;-1.13;100.00;100735.44;4136197;28;20026;-68
2024/01/16 04:49:30;;;;;;;8.23;4.95;;;-0.10;99.90;;;-1.16;100.00;100733.84;4136143;28;20406;-68
2024/01/16 04:51:31;;;;;;;6.55;4.00;;;-0.10;99.90;;;-1.15;100.00;100735.53;4135983;28;20023;-68
2024/01/16 04:53:32;;;;;;;6.75;4.15;;;-0.10;99.90;;;-1.14;100.00;100729.47;4167541;28;20033;-68
2024/01/16 04:55:33;;;;;;;7.68;4.43;;;-0.10;99.90;;;-1.13;100.00;100728.53;4136252;28;20022;-68
2024/01/16 04:57:34;;;;;;;7.88;4.53;;;-0.10;99.90;;;-1.17;100.00;100723.59;4136085;28;20085;-68
2024/01/16 04:59:34;;;;;;;6.05;4.13;;;-0.10;99.90;;;-1.12;100.00;100724.19;4135787;28;20517;-68
2024/01/16 05:01:35;;;;;;;7.70;3.92;;;-0.10;99.90;;;-1.07;100.00;100723.91;4135843;28;20033;-68
2024/01/16 05:03:36;;;;;;;5.63;4.45;;;0.00;99.90;;;-1.08;100.00;100715.34;4138550;28;20022;-68
2024/01/16 05:05:37;;;;;;;6.28;3.97;;;0.00;99.90;;;-0.99;100.00;100717.44;4141333;28;20027;-68
2024/01/16 05:07:38;;;;;;;6.85;4.28;;;0.00;99.90;;;-0.99;100.00;100704.50;4135929;28;20026;-68
2024/01/16 05:09:39;;;;;;;8.43;4.72;;;0.00;99.90;;;-0.91;100.00;100709.25;4135626;28;20398;-69
2024/01/16 05:11:39;;;;;;;12.43;4.82;;;0.10;99.90;;;-0.86;100.00;100705.47;4134477;28;20038;-68
2024/01/16 05:13:40;;;;;;;7.82;4.65;;;0.10;99.90;;;-0.79;100.00;100703.38;4135906;28;20034;-68
2024/01/16 05:15:42;;;;;;;14.30;5.20;;;0.20;99.90;;;-0.76;100.00;100692.84;4135649;28;20041;-68
2024/01/16 05:17:42;;;;;;;7.57;4.28;;;0.20;99.90;;;-0.70;100.00;100687.34;4135722;28;20041;-68
2024/01/16 05:19:43;;;;;;;6.32;3.90;;;0.30;99.90;;;-0.68;100.00;100681.13;4134678;28;20406;-68
2024/01/16 05:21:44;;;;;;;7.10;3.88;;;0.30;99.90;;;-0.68;100.00;100682.88;4135960;28;20023;-68
2024/01/16 05:23:45;;;;;;;6.85;3.90;;;0.30;99.90;;;-0.70;100.00;100683.00;4135816;28;20018;-68
2024/01/16 05:25:46;;;;;;;5.82;4.15;;;0.30;99.90;;;-0.74;100.00;100675.47;4135673;28;20030;-68
2024/01/16 05:27:47;;;;;;;6.32;3.60;;;0.20;99.90;;;-0.79;100.00;100673.16;4136376;28;20018;-68
2024/01/16 05:29:48;;;;;;;5.95;3.83;;;0.20;99.90;;;-0.84;100.00;100669.16;4137487;28;20488;-68
2024/01/16 05:31:48;;;;;;;7.07;3.92;;;0.20;99.90;;;-0.89;100.00;100666.81;4138960;28;20027;-68
2024/01/16 05:33:49;;;;;;;6.93;3.90;;;0.10;99.90;;;-0.92;100.00;100676.50;4138929;28;20026;-69
2024/01/16 05:35:50;;;;;;;7.57;3.60;;;0.10;99.90;;;-0.98;100.00;100676.81;4138904;28;20405;-68
2024/01/16 05:37:51;;;;;;;6.15;4.03;;;0.00;99.90;;;-1.01;100.00;100666.63;4137632;28;20529;-68
2024/01/16 05:39:52;;;;;;;6.97;4.22;;;0.00;99.90;;;-1.06;100.00;100664.31;4138888;28;20025;-68
2024/01/16 05:41:53;;;;;;;7.85;3.80;;;0.00;99.90;;;-1.11;100.00;100668.94;4137419;28;20026;-69
2024/01/16 05:43:53;;;;;;;7.15;3.80;;;-0.10;99.90;;;-1.16;100.00;100660.56;4138573;28;20050;-68
2024/01/16 05:45:54;;;;;;;10.18;4.18;;;-0.20;99.90;;;-1.18;100.00;100665.84;4138970;28;20478;-68
2024/01/16 05:47:56;;;;;;;8.95;3.95;;;-0.20;99.90;;;-1.26;100.00;100660.25;4137647;28;20490;-68
2024/01/16 05:49:57;;;;;;;5.63;4.20;;;-0.20;99.90;;;-1.27;100.00;100657.72;4138611;28;20025;-68
2024/01/16 05:51:58;;;;;;;8.00;5.15;;;-0.30;99.90;;;-1.27;100.00;100642.19;4138640;28;20015;-68
2024/01/16 05:53:59;;;;;;;7.65;4.68;;;-0.30;99.90;;;-1.34;100.00;100633.94;4138785;28;20027;-68
2024/01/16 05:55:59;;;;;;;7.75;4.60;;;-0.40;99.90;;;-1.38;100.00;100631.59;4138554;28;20010;-68
2024/01/16 05:58:00;;;;;;;6.32;4.43;;;-0.40;99.90;;;-1.38;100.00;100637.63;4138457;28;20471;-68
2024/01/16 06:00:03;;;;;;;7.65;4.82;;;-0.40;99.90;;;-1.35;100.00;100636.63;4138282;28;20394;-68
2024/01/16 06:02:04;;;;;;;6.60;4.38;;;-0.40;99.90;;;-1.34;100.00;100630.50;4137265;28;20111;-68
2024/01/16 06:04:05;;;;;;;7.13;4.40;;;-0.30;99.90;;;-1.26;100.00;100641.28;4137316;28;20501;-68
2024/01/16 06:06:07;;;;;;;5.55;4.32;;;-0.30;99.90;;;-1.30;100.00;100638.03;4138402;28;20526;-68
2024/01/16 06:08:08;;;;;;;5.20;3.65;;;-0.30;99.90;;;-1.27;100.00;100640.44;4138432;28;20022;-68
2024/01/16 06:10:12;;;;;;;5.80;3.95;;;-0.30;99.90;;;-1.28;100.00;100636.19;4138446;28;20127;-68
2024/01/16 06:12:13;;;;;;;;;;;-0.30;99.90;;;-1.31;100.00;100638.94;4138679;28;20050;-68
2024/01/16 06:14:19;;;;;;;7.80;4.10;;;-0.30;99.90;;;-1.33;100.00;100640.78;4136760;28;19910;-68
2024/01/16 06:16:20;;;;;;;6.95;4.45;;;-0.30;99.90;;;-1.34;100.00;100635.69;4137220;28;20425;-69
2024/01/16 06:18:21;;;;;;;8.70;4.80;;;-0.30;99.90;;;-1.39;100.00;100629.94;4138270;28;20022;-69
2024/01/16 06:20:23;;;;;;;7.07;4.50;;;-0.40;99.90;;;-1.44;100.00;100635.38;4138181;28;20042;-69
2024/01/16 06:22:24;;;;;;;8.35;4.45;;;-0.40;99.90;;;-1.52;100.00;100634.13;4137917;28;20030;-69
2024/01/16 06:24:26;;;;;;;10.30;4.18;;;-0.50;99.90;;;-1.61;100.00;100634.59;4137034;28;20022;-68
2024/01/16 06:26:26;;;;;;;7.57;5.07;;;-0.60;99.90;;;-1.69;100.00;100632.41;4138234;28;20505;-69
2024/01/16 06:28:27;;;;;;;6.82;4.28;;;-0.60;99.90;;;-1.76;100.00;100639.66;4138148;28;20022;-69
2024/01/16 06:30:28;;;;;;;8.20;5.13;;;-0.70;99.90;;;-1.82;100.00;100634.78;4137604;28;20034;-69
2024/01/16 06:32:29;;;;;;;8.15;4.50;;;-0.80;99.90;;;-1.88;100.00;100636.91;4137055;28;20033;-69
2024/01/16 06:34:30;;;;;;;9.68;4.63;;;-0.80;99.90;;;-1.89;100.00;100638.63;4136944;28;20074;-69
2024/01/16 06:36:31;;;;;;;6.85;4.32;;;-0.90;99.90;;;-1.95;100.00;100635.53;4138208;28;20030;-69
2024/01/16 06:38:32;;;;;;;6.57;4.70;;;-0.90;99.90;;;-1.99;100.00;100639.19;4135728;28;20029;-69
2024/01/16 06:40:33;;;;;;;7.53;4.07;;;-1.00;99.90;;;-1.97;100.00;100645.94;4136716;28;20054;-69
2024/01/16 06:42:33;;;;;;;5.78;4.45;;;-1.00;99.90;;;-2.00;100.00;100642.69;4137823;28;20551;-68
2024/01/16 06:44:34;;;;;;;8.95;4.90;;;-1.00;99.90;;;-2.01;100.00;100638.44;4137799;28;20398;-68
2024/01/16 06:46:35;;;;;;;9.10;4.70;;;-1.00;99.90;;;-2.06;100.00;100640.44;4137879;28;20034;-68
2024/01/16 06:48:37;;;;;;;6.68;4.53;;;-1.10;99.90;;;-2.09;100.00;100633.63;4137694;28;20023;-68
2024/01/16 06:50:38;;;;;;;6.57;4.55;;;-1.10;99.90;;;-2.10;100.00;100636.31;4137886;28;20033;-69
2024/01/16 06:52:39;;;;;;;7.07;4.85;;;-1.10;99.90;;;-2.16;100.00;100641.81;4137995;28;20027;-69
2024/01/16 06:54:40;;;;;;;10.25;4.60;;;-1.10;99.90;;;-2.18;100.00;100656.56;4137747;28;20022;-69
2024/01/16 06:56:41;;;;;;;8.35;4.65;;;-1.20;99.90;;;-2.21;100.00;100646.38;4137805;28;20457;-69
2024/01/16 06:58:42;;;;;;;7.38;4.68;;;-1.20;99.90;;;-2.25;100.00;100656.88;4137697;28;20031;-69
2024/01/16 07:00:43;;;;;;;9.60;5.28;;;-1.20;99.90;;;-2.21;100.00;100659.28;4136303;28;20401;-69
2024/01/16 07:02:43;;;;;;;12.35;5.15;;;-1.20;99.90;;;-2.25;100.00;100656.03;4137423;28;20023;-68
2024/01/16 07:04:44;;;;;;;8.88;4.78;;;-1.20;99.90;;;-2.23;100.00;100656.78;4137695;28;20034;-68
2024/01/16 07:06:45;;;;;;;7.72;4.60;;;-1.20;99.90;;;-2.26;100.00;100657.75;4137571;28;20034;-68
2024/01/16 07:08:46;;;;;;;11.02;5.40;;;-1.30;99.90;;;-2.31;100.00;100657.16;4137368;28;20026;-69
2024/01/16 07:10:47;;;;;;;9.13;5.50;;;-1.30;99.90;;;-2.27;100.00;100666.41;4137443;28;20037;-68
2024/01/16 07:12:49;;;;;;;15.07;6.20;;;-1.30;99.90;;;-2.28;100.00;100661.34;4135975;28;20046;-68
2024/01/16 07:14:50;;;;;;;8.20;5.35;;;-1.30;99.90;;;-2.31;100.00;100659.75;4137349;28;20105;-68
2024/01/16 07:16:51;;;;;;;10.80;6.68;;;-1.30;99.90;;;-2.28;100.00;100662.19;4136121;28;20038;-68
2024/01/16 07:18:53;;;;;;;13.95;7.95;;;-1.30;99.90;;;-2.33;100.00;100658.97;4137321;28;20026;-68
2024/01/16 07:20:54;;;;;;;10.85;6.72;;;-1.30;99.90;;;-2.35;100.00;100665.97;4135940;28;20034;-68
2024/01/16 07:22:55;;;;;;;8.88;5.47;;;-1.30;99.90;;;-2.37;100.00;100679.88;4135954;28;20030;-69
2024/01/16 07:24:56;;;;;;;8.18;5.38;;;-1.40;99.90;;;-2.42;100.00;100669.75;4137306;28;20038;-68
2024/01/16 07:26:56;;;;;;;7.53;5.32;;;-1.40;99.90;;;-2.45;100.00;100685.41;4137498;28;20022;-68
2024/01/16 07:28:58;;;;;;;9.07;5.35;;;-1.40;99.90;;;-2.45;100.00;100682.00;4135616;28;20545;-69
2024/01/16 07:30:59;;;;;;;7.55;5.55;;;-1.40;99.90;;;-2.48;100.00;100682.16;4137226;28;20076;-68
2024/01/16 07:33:00;;;;;;;9.18;5.57;;;-1.40;99.90;;;-2.52;100.00;100678.91;4137134;28;20035;-68
2024/01/16 07:35:01;;;;;;;11.57;6.57;;;-1.50;99.90;;;-2.56;100.00;100672.19;4137034;28;20035;-68
2024/01/16 07:37:03;;;;;;;13.63;7.20;;;-1.50;99.90;;;-2.55;100.00;100676.47;4136907;28;20049;-68
2024/01/16 07:39:03;;;;;;;9.13;6.97;;;-1.60;99.90;;;-2.57;100.00;100662.78;4137164;28;20053;-68
2024/01/16 07:41:05;;;;;;;12.45;7.63;;;-1.60;99.90;;;-2.54;100.00;100648.91;4135750;28;20030;-68
2024/01/16 07:43:06;;;;;;;15.50;9.60;;;-1.60;99.90;;;-2.57;100.00;100642.13;4137133;28;20044;-68
2024/01/16 07:45:07;;;;;;;20.38;11.45;;;-1.60;99.90;;;-2.57;100.00;100647.28;4136587;28;20022;-68
2024/01/16 07:47:08;;;;;;;18.48;9.90;;;-1.60;99.90;;;-2.59;100.00;100648.25;4136498;28;20109;-69
2024/01/16 07:49:09;;;;;;;13.98;8.20;;;-1.60;99.90;;;-2.59;100.00;100651.69;4135720;28;20033;-68
2024/01/16 07:51:10;;;;;;;9.15;6.03;;;-1.60;99.90;;;-2.57;100.00;100647.28;4136423;28;20021;-68
2024/01/16 07:53:11;;;;;;;9.85;6.35;;;-1.60;99.90;;;-2.60;100.00;100644.88;4136639;28;20031;-68
2024/01/16 07:55:12;;;;;;;10.18;6.72;;;-1.60;99.90;;;-2.61;100.00;100637.19;4136968;28;20032;-68
2024/01/16 07:57:13;;;;;;;9.90;6.38;;;-1.60;99.90;;;-2.62;100.00;100649.25;4136946;28;20030;-68
2024/01/16 07:59:14;;;;;;;10.10;5.88;;;-1.60;99.90;;;-2.64;100.00;100642.50;4136617;28;20023;-68
2024/01/16 08:01:15;;;;;;;10.00;6.40;;;-1.60;99.90;;;-2.64;100.00;100650.25;4135344;28;20472;-68
2024/01/16 08:03:16;;;;;;;12.35;6.85;;;-1.60;99.90;;;-2.64;100.00;100650.25;4135485;28;20027;-68
2024/01/16 08:05:16;;;;;;;10.15;7.00;;;-1.60;99.90;;;-2.64;100.00;100651.09;4136822;28;20026;-68
2024/01/16 08:07:17;;;;;;;8.90;6.22;;;-1.60;99.90;;;-2.59;100.00;100656.84;4136561;28;20375;-68
2024/01/16 08:09:19;;;;;;;9.68;6.43;;;-1.60;99.90;;;-2.60;100.00;100657.78;4118994;28;20031;-68
2024/01/16 08:11:20;;;;;;;8.63;6.03;;;-1.60;99.90;;;-2.60;100.00;100657.78;4151276;28;20033;-69
2024/01/16 08:13:21;;;;;;;9.77;7.18;;;-1.60;99.90;;;-2.60;100.00;100655.19;4136647;28;20030;-68
2024/01/16 08:15:22;;;;;;;10.48;6.80;;;-1.60;99.90;;;-2.52;100.00;100655.66;4136271;28;20026;-68
2024/01/16 08:17:23;;;;;;;12.30;7.13;;;-1.50;99.90;;;-2.50;100.00;100658.97;4136453;28;20081;-68
2024/01/16 08:19:24;;;;;;;10.63;7.40;;;-1.50;99.90;;;-2.45;100.00;100656.19;4134822;28;20089;-68